Terminal Aerodrome Forecast
Issued by NWS St Louis, MO

Home | Current Version | Previous Version | Text Only | Print | Product List | Glossary On
Versions: 1 2 3 4 5 6 7 8 9 10 11 12 13 14 15 16 17 18 19
000
FTUS43 KLSX 271125
TAFCOU
TAF
KCOU 271125Z 2712/2812 VRB04KT 6SM BR SCT100
      TEMPO 2712/2714 3SM BR
     FM271500 VRB03KT P6SM SCT035
     FM280600 VRB03KT 5SM BR SKC=

USA.gov is the U.S. government's official web portal to all federal, state and local government web resources and services.